sensor_id;sensor_type;location;lat;lon;timestamp;P1;durP1;ratioP1;P2;durP2;ratioP2
46717;SDS011;32448;44.960;-0.698;2022-10-17T03:02:07;10.20;;;4.70;;
46717;SDS011;32448;44.960;-0.698;2022-10-17T03:04:34;8.45;;;4.47;;
46717;SDS011;32448;44.960;-0.698;2022-10-17T03:07:02;8.32;;;4.50;;
46717;SDS011;32448;44.960;-0.698;2022-10-17T03:09:29;9.40;;;5.15;;
46717;SDS011;32448;44.960;-0.698;2022-10-17T03:11:56;11.90;;;4.78;;
46717;SDS011;32448;44.960;-0.698;2022-10-17T03:14:24;12.98;;;4.50;;
46717;SDS011;32448;44.960;-0.698;2022-10-17T03:16:51;15.63;;;5.82;;
46717;SDS011;32448;44.960;-0.698;2022-10-17T03:19:18;11.50;;;4.93;;
46717;SDS011;32448;44.960;-0.698;2022-10-17T03:21:46;10.00;;;5.25;;
46717;SDS011;32448;44.960;-0.698;2022-10-17T03:24:13;13.88;;;4.95;;
46717;SDS011;32448;44.960;-0.698;2022-10-17T03:26:40;12.45;;;4.70;;
46717;SDS011;32448;44.960;-0.698;2022-10-17T03:29:09;15.43;;;5.03;;
46717;SDS011;32448;44.960;-0.698;2022-10-17T03:31:37;10.75;;;5.15;;
46717;SDS011;32448;44.960;-0.698;2022-10-17T03:34:05;11.35;;;4.85;;
46717;SDS011;32448;44.960;-0.698;2022-10-17T03:36:32;13.88;;;5.50;;
46717;SDS011;32448;44.960;-0.698;2022-10-17T03:39:00;11.00;;;5.00;;
46717;SDS011;32448;44.960;-0.698;2022-10-17T03:41:27;13.93;;;5.65;;
46717;SDS011;32448;44.960;-0.698;2022-10-17T03:43:54;12.93;;;5.70;;
46717;SDS011;32448;44.960;-0.698;2022-10-17T03:46:22;14.80;;;5.47;;
46717;SDS011;32448;44.960;-0.698;2022-10-17T03:48:50;14.77;;;5.53;;
46717;SDS011;32448;44.960;-0.698;2022-10-17T03:51:17;11.98;;;5.60;;
46717;SDS011;32448;44.960;-0.698;2022-10-17T03:53:49;16.17;;;5.97;;
46717;SDS011;32448;44.960;-0.698;2022-10-17T03:56:18;25.00;;;6.13;;
46717;SDS011;32448;44.960;-0.698;2022-10-17T03:59:03;14.13;;;6.07;;
46717;SDS011;32448;44.960;-0.698;2022-10-17T04:01:33;17.00;;;6.00;;
46717;SDS011;32448;44.960;-0.698;2022-10-17T04:04:00;6.90;;;4.38;;
46717;SDS011;32448;44.960;-0.698;2022-10-17T04:06:30;17.98;;;5.45;;
46717;SDS011;32448;44.960;-0.698;2022-10-17T04:08:58;12.00;;;4.85;;
46717;SDS011;32448;44.960;-0.698;2022-10-17T04:11:33;10.95;;;5.40;;
46717;SDS011;32448;44.960;-0.698;2022-10-17T04:14:02;17.27;;;5.75;;
46717;SDS011;32448;44.960;-0.698;2022-10-17T04:16:29;10.90;;;4.85;;
46717;SDS011;32448;44.960;-0.698;2022-10-17T04:19:00;12.18;;;5.72;;
46717;SDS011;32448;44.960;-0.698;2022-10-17T04:21:34;12.07;;;5.18;;
46717;SDS011;32448;44.960;-0.698;2022-10-17T04:24:05;9.35;;;5.80;;
46717;SDS011;32448;44.960;-0.698;2022-10-17T04:26:50;12.27;;;5.20;;
46717;SDS011;32448;44.960;-0.698;2022-10-17T04:29:20;14.65;;;5.13;;
46717;SDS011;32448;44.960;-0.698;2022-10-17T04:31:50;13.10;;;5.45;;
46717;SDS011;32448;44.960;-0.698;2022-10-17T04:34:28;10.48;;;5.20;;
46717;SDS011;32448;44.960;-0.698;2022-10-17T04:36:55;12.35;;;5.22;;
46717;SDS011;32448;44.960;-0.698;2022-10-17T04:39:22;10.55;;;4.53;;
46717;SDS011;32448;44.960;-0.698;2022-10-17T04:41:49;8.63;;;5.03;;
46717;SDS011;32448;44.960;-0.698;2022-10-17T04:44:17;10.52;;;5.20;;
46717;SDS011;32448;44.960;-0.698;2022-10-17T04:46:49;12.05;;;5.18;;
46717;SDS011;32448;44.960;-0.698;2022-10-17T04:49:18;9.27;;;5.15;;
46717;SDS011;32448;44.960;-0.698;2022-10-17T04:51:50;10.35;;;5.15;;
46717;SDS011;32448;44.960;-0.698;2022-10-17T04:54:22;13.50;;;5.38;;
46717;SDS011;32448;44.960;-0.698;2022-10-17T04:57:03;12.10;;;5.32;;
46717;SDS011;32448;44.960;-0.698;2022-10-17T04:59:31;12.48;;;5.07;;
46717;SDS011;32448;44.960;-0.698;2022-10-17T05:02:22;16.02;;;5.60;;
46717;SDS011;32448;44.960;-0.698;2022-10-17T05:04:50;13.75;;;5.40;;
46717;SDS011;32448;44.960;-0.698;2022-10-17T05:07:19;13.48;;;5.28;;
46717;SDS011;32448;44.960;-0.698;2022-10-17T05:09:46;12.95;;;5.63;;
46717;SDS011;32448;44.960;-0.698;2022-10-17T05:12:15;19.88;;;5.55;;
46717;SDS011;32448;44.960;-0.698;2022-10-17T05:14:43;14.35;;;6.20;;
46717;SDS011;32448;44.960;-0.698;2022-10-17T05:17:12;12.23;;;5.18;;
46717;SDS011;32448;44.960;-0.698;2022-10-17T05:19:39;11.63;;;5.70;;
46717;SDS011;32448;44.960;-0.698;2022-10-17T05:22:10;13.75;;;5.03;;
46717;SDS011;32448;44.960;-0.698;2022-10-17T05:24:43;11.57;;;5.18;;
46717;SDS011;32448;44.960;-0.698;2022-10-17T05:27:18;13.23;;;5.18;;
46717;SDS011;32448;44.960;-0.698;2022-10-17T05:29:55;18.02;;;5.30;;
46717;SDS011;32448;44.960;-0.698;2022-10-17T05:32:29;11.15;;;5.13;;
46717;SDS011;32448;44.960;-0.698;2022-10-17T05:34:57;10.43;;;5.18;;
46717;SDS011;32448;44.960;-0.698;2022-10-17T05:37:32;11.10;;;5.28;;
46717;SDS011;32448;44.960;-0.698;2022-10-17T05:40:01;11.43;;;4.90;;
46717;SDS011;32448;44.960;-0.698;2022-10-17T05:42:29;8.68;;;4.80;;
46717;SDS011;32448;44.960;-0.698;2022-10-17T05:44:57;12.18;;;4.72;;
46717;SDS011;32448;44.960;-0.698;2022-10-17T05:47:25;14.85;;;5.32;;
46717;SDS011;32448;44.960;-0.698;2022-10-17T05:49:54;10.82;;;5.03;;
46717;SDS011;32448;44.960;-0.698;2022-10-17T05:52:28;9.73;;;4.55;;
46717;SDS011;32448;44.960;-0.698;2022-10-17T05:55:21;12.25;;;4.90;;
46717;SDS011;32448;44.960;-0.698;2022-10-17T05:57:52;10.75;;;5.10;;
46717;SDS011;32448;44.960;-0.698;2022-10-17T06:00:21;11.65;;;4.75;;
46717;SDS011;32448;44.960;-0.698;2022-10-17T06:02:55;15.88;;;5.38;;
46717;SDS011;32448;44.960;-0.698;2022-10-17T06:05:22;11.23;;;5.00;;
46717;SDS011;32448;44.960;-0.698;2022-10-17T06:07:53;11.82;;;5.05;;
46717;SDS011;32448;44.960;-0.698;2022-10-17T06:10:49;10.98;;;4.97;;
46717;SDS011;32448;44.960;-0.698;2022-10-17T06:13:24;13.40;;;4.35;;
46717;SDS011;32448;44.960;-0.698;2022-10-17T06:15:56;11.68;;;5.28;;
46717;SDS011;32448;44.960;-0.698;2022-10-17T06:18:24;12.27;;;5.68;;
46717;SDS011;32448;44.960;-0.698;2022-10-17T06:20:53;12.57;;;4.80;;
46717;SDS011;32448;44.960;-0.698;2022-10-17T06:23:22;13.80;;;4.45;;
46717;SDS011;32448;44.960;-0.698;2022-10-17T06:26:01;14.25;;;4.63;;
46717;SDS011;32448;44.960;-0.698;2022-10-17T06:28:31;13.57;;;4.95;;
46717;SDS011;32448;44.960;-0.698;2022-10-17T06:31:02;15.52;;;5.45;;
46717;SDS011;32448;44.960;-0.698;2022-10-17T06:33:34;9.68;;;5.03;;
46717;SDS011;32448;44.960;-0.698;2022-10-17T06:36:03;17.02;;;5.43;;
46717;SDS011;32448;44.960;-0.698;2022-10-17T06:38:33;13.10;;;4.97;;
46717;SDS011;32448;44.960;-0.698;2022-10-17T06:41:14;12.13;;;4.97;;
46717;SDS011;32448;44.960;-0.698;2022-10-17T06:43:45;13.40;;;5.15;;
46717;SDS011;32448;44.960;-0.698;2022-10-17T06:46:31;17.15;;;4.70;;
46717;SDS011;32448;44.960;-0.698;2022-10-17T06:49:01;12.82;;;5.00;;
46717;SDS011;32448;44.960;-0.698;2022-10-17T06:51:40;15.57;;;5.07;;
46717;SDS011;32448;44.960;-0.698;2022-10-17T06:54:10;10.80;;;4.63;;
46717;SDS011;32448;44.960;-0.698;2022-10-17T06:57:05;9.50;;;4.85;;
46717;SDS011;32448;44.960;-0.698;2022-10-17T06:59:55;11.63;;;4.65;;
46717;SDS011;32448;44.960;-0.698;2022-10-17T07:02:31;14.38;;;4.85;;
46717;SDS011;32448;44.960;-0.698;2022-10-17T07:05:00;11.68;;;4.65;;
46717;SDS011;32448;44.960;-0.698;2022-10-17T07:07:31;17.98;;;4.65;;
46717;SDS011;32448;44.960;-0.698;2022-10-17T07:09:58;14.45;;;4.38;;
46717;SDS011;32448;44.960;-0.698;2022-10-17T07:12:26;12.38;;;4.80;;
46717;SDS011;32448;44.960;-0.698;2022-10-17T07:14:53;10.95;;;5.10;;
46717;SDS011;32448;44.960;-0.698;2022-10-17T07:17:20;10.25;;;4.18;;
46717;SDS011;32448;44.960;-0.698;2022-10-17T07:19:48;12.13;;;4.82;;
46717;SDS011;32448;44.960;-0.698;2022-10-17T07:22:15;15.15;;;4.90;;
46717;SDS011;32448;44.960;-0.698;2022-10-17T07:24:46;13.05;;;5.50;;
46717;SDS011;32448;44.960;-0.698;2022-10-17T07:27:38;12.73;;;4.75;;
46717;SDS011;32448;44.960;-0.698;2022-10-17T07:30:06;9.60;;;4.40;;
46717;SDS011;32448;44.960;-0.698;2022-10-17T07:32:36;12.20;;;4.70;;
46717;SDS011;32448;44.960;-0.698;2022-10-17T07:35:04;9.73;;;4.47;;
46717;SDS011;32448;44.960;-0.698;2022-10-17T07:37:32;12.18;;;4.80;;
46717;SDS011;32448;44.960;-0.698;2022-10-17T07:40:00;12.48;;;4.72;;
46717;SDS011;32448;44.960;-0.698;2022-10-17T07:42:27;10.18;;;4.68;;
46717;SDS011;32448;44.960;-0.698;2022-10-17T07:44:54;12.25;;;4.88;;
46717;SDS011;32448;44.960;-0.698;2022-10-17T07:47:24;7.88;;;4.55;;
46717;SDS011;32448;44.960;-0.698;2022-10-17T07:49:52;9.13;;;4.93;;
46717;SDS011;32448;44.960;-0.698;2022-10-17T07:52:19;16.20;;;5.18;;
46717;SDS011;32448;44.960;-0.698;2022-10-17T07:54:46;13.43;;;5.35;;
46717;SDS011;32448;44.960;-0.698;2022-10-17T07:57:13;14.27;;;5.35;;
46717;SDS011;32448;44.960;-0.698;2022-10-17T07:59:40;11.45;;;5.22;;
46717;SDS011;32448;44.960;-0.698;2022-10-17T08:02:09;13.82;;;4.65;;
46717;SDS011;32448;44.960;-0.698;2022-10-17T08:04:46;14.30;;;5.28;;
46717;SDS011;32448;44.960;-0.698;2022-10-17T08:07:14;11.73;;;5.07;;
46717;SDS011;32448;44.960;-0.698;2022-10-17T08:09:50;12.02;;;5.63;;
46717;SDS011;32448;44.960;-0.698;2022-10-17T08:12:18;14.95;;;5.28;;
46717;SDS011;32448;44.960;-0.698;2022-10-17T08:14:45;16.80;;;6.07;;
46717;SDS011;32448;44.960;-0.698;2022-10-17T08:17:13;13.60;;;5.40;;
46717;SDS011;32448;44.960;-0.698;2022-10-17T08:19:40;12.75;;;5.32;;
46717;SDS011;32448;44.960;-0.698;2022-10-17T08:22:08;11.88;;;4.95;;
46717;SDS011;32448;44.960;-0.698;2022-10-17T08:24:35;16.60;;;5.68;;
46717;SDS011;32448;44.960;-0.698;2022-10-17T08:27:02;15.10;;;5.70;;
46717;SDS011;32448;44.960;-0.698;2022-10-17T08:29:37;11.60;;;5.28;;
46717;SDS011;32448;44.960;-0.698;2022-10-17T08:32:05;11.25;;;4.90;;
46717;SDS011;32448;44.960;-0.698;2022-10-17T08:34:35;12.68;;;5.10;;
46717;SDS011;32448;44.960;-0.698;2022-10-17T08:37:02;14.15;;;5.40;;
46717;SDS011;32448;44.960;-0.698;2022-10-17T08:39:30;10.23;;;5.28;;
46717;SDS011;32448;44.960;-0.698;2022-10-17T08:47:23;13.02;;;5.90;;
46717;SDS011;32448;44.960;-0.698;2022-10-17T08:50:02;17.20;;;5.57;;
46717;SDS011;32448;44.960;-0.698;2022-10-17T08:52:34;15.30;;;5.88;;
46717;SDS011;32448;44.960;-0.698;2022-10-17T08:55:04;18.30;;;5.45;;
46717;SDS011;32448;44.960;-0.698;2022-10-17T08:57:43;13.10;;;5.07;;
46717;SDS011;32448;44.960;-0.698;2022-10-17T09:00:17;15.50;;;5.38;;
46717;SDS011;32448;44.960;-0.698;2022-10-17T09:02:58;10.18;;;5.15;;
46717;SDS011;32448;44.960;-0.698;2022-10-17T09:05:40;17.30;;;5.63;;
46717;SDS011;32448;44.960;-0.698;2022-10-17T09:20:16;13.30;;;5.60;;
46717;SDS011;32448;44.960;-0.698;2022-10-17T09:23:05;22.30;;;5.68;;
46717;SDS011;32448;44.960;-0.698;2022-10-17T09:25:40;15.45;;;5.97;;
46717;SDS011;32448;44.960;-0.698;2022-10-17T09:33:13;13.60;;;6.28;;
46717;SDS011;32448;44.960;-0.698;2022-10-17T09:36:02;17.20;;;6.03;;
46717;SDS011;32448;44.960;-0.698;2022-10-17T09:38:44;12.30;;;5.07;;
46717;SDS011;32448;44.960;-0.698;2022-10-17T09:41:34;12.40;;;6.40;;
46717;SDS011;32448;44.960;-0.698;2022-10-17T09:49:47;11.18;;;6.13;;
46717;SDS011;32448;44.960;-0.698;2022-10-17T09:55:14;15.60;;;5.93;;
46717;SDS011;32448;44.960;-0.698;2022-10-17T09:57:53;13.80;;;5.57;;
46717;SDS011;32448;44.960;-0.698;2022-10-17T10:00:29;16.65;;;5.05;;
46717;SDS011;32448;44.960;-0.698;2022-10-17T10:05:35;18.30;;;5.18;;
46717;SDS011;32448;44.960;-0.698;2022-10-17T10:08:04;12.23;;;5.25;;
46717;SDS011;32448;44.960;-0.698;2022-10-17T10:10:38;12.70;;;4.80;;
46717;SDS011;32448;44.960;-0.698;2022-10-17T10:15:39;16.58;;;5.07;;
46717;SDS011;32448;44.960;-0.698;2022-10-17T10:21:04;12.93;;;5.20;;
46717;SDS011;32448;44.960;-0.698;2022-10-17T10:24:04;11.23;;;6.05;;
46717;SDS011;32448;44.960;-0.698;2022-10-17T10:29:17;12.63;;;5.85;;
46717;SDS011;32448;44.960;-0.698;2022-10-17T10:31:48;11.85;;;5.88;;
46717;SDS011;32448;44.960;-0.698;2022-10-17T10:34:18;14.43;;;5.90;;
46717;SDS011;32448;44.960;-0.698;2022-10-17T10:42:20;14.73;;;6.30;;
46717;SDS011;32448;44.960;-0.698;2022-10-17T10:44:51;14.10;;;6.18;;
46717;SDS011;32448;44.960;-0.698;2022-10-17T10:47:22;16.27;;;5.72;;
46717;SDS011;32448;44.960;-0.698;2022-10-17T10:50:05;11.57;;;6.00;;
46717;SDS011;32448;44.960;-0.698;2022-10-17T10:53:06;17.73;;;5.95;;
46717;SDS011;32448;44.960;-0.698;2022-10-17T10:58:33;15.48;;;7.63;;
46717;SDS011;32448;44.960;-0.698;2022-10-17T11:01:16;11.85;;;6.55;;
46717;SDS011;32448;44.960;-0.698;2022-10-17T11:03:56;15.15;;;7.97;;
46717;SDS011;32448;44.960;-0.698;2022-10-17T11:06:29;15.23;;;6.82;;
46717;SDS011;32448;44.960;-0.698;2022-10-17T11:09:06;18.20;;;7.20;;
46717;SDS011;32448;44.960;-0.698;2022-10-17T11:11:38;11.30;;;7.28;;
46717;SDS011;32448;44.960;-0.698;2022-10-17T11:16:48;13.20;;;6.80;;
46717;SDS011;32448;44.960;-0.698;2022-10-17T11:22:47;11.55;;;6.88;;
46717;SDS011;32448;44.960;-0.698;2022-10-17T11:25:30;18.48;;;7.60;;
46717;SDS011;32448;44.960;-0.698;2022-10-17T11:27:58;20.77;;;8.25;;
46717;SDS011;32448;44.960;-0.698;2022-10-17T11:30:35;13.95;;;7.47;;
46717;SDS011;32448;44.960;-0.698;2022-10-17T11:33:23;14.60;;;6.95;;
46717;SDS011;32448;44.960;-0.698;2022-10-17T11:36:13;14.45;;;7.15;;
46717;SDS011;32448;44.960;-0.698;2022-10-17T11:38:50;20.10;;;7.10;;
46717;SDS011;32448;44.960;-0.698;2022-10-17T11:41:28;12.25;;;7.28;;
46717;SDS011;32448;44.960;-0.698;2022-10-17T11:50:15;17.15;;;5.20;;
46717;SDS011;32448;44.960;-0.698;2022-10-17T11:55:42;9.77;;;4.73;;
46717;SDS011;32448;44.960;-0.698;2022-10-17T12:01:26;14.02;;;5.10;;
46717;SDS011;32448;44.960;-0.698;2022-10-17T12:06:51;18.67;;;5.75;;
46717;SDS011;32448;44.960;-0.698;2022-10-17T12:12:39;10.18;;;4.32;;
46717;SDS011;32448;44.960;-0.698;2022-10-17T12:17:45;14.52;;;4.47;;
46717;SDS011;32448;44.960;-0.698;2022-10-17T12:25:18;10.50;;;3.95;;
46717;SDS011;32448;44.960;-0.698;2022-10-17T12:27:48;17.85;;;5.53;;
46717;SDS011;32448;44.960;-0.698;2022-10-17T12:33:03;14.15;;;4.43;;
46717;SDS011;32448;44.960;-0.698;2022-10-17T12:35:50;13.23;;;4.15;;
46717;SDS011;32448;44.960;-0.698;2022-10-17T12:38:43;16.27;;;5.20;;
46717;SDS011;32448;44.960;-0.698;2022-10-17T12:42:02;10.95;;;4.45;;
46717;SDS011;32448;44.960;-0.698;2022-10-17T12:49:42;14.32;;;4.40;;
46717;SDS011;32448;44.960;-0.698;2022-10-17T12:52:15;14.77;;;4.40;;
46717;SDS011;32448;44.960;-0.698;2022-10-17T12:57:43;11.50;;;4.32;;
46717;SDS011;32448;44.960;-0.698;2022-10-17T13:00:21;9.90;;;4.15;;
46717;SDS011;32448;44.960;-0.698;2022-10-17T13:02:52;23.40;;;5.32;;
46717;SDS011;32448;44.960;-0.698;2022-10-17T13:08:19;13.15;;;4.88;;
46717;SDS011;32448;44.960;-0.698;2022-10-17T13:10:48;11.88;;;4.20;;
46717;SDS011;32448;44.960;-0.698;2022-10-17T13:15:59;13.60;;;4.28;;
46717;SDS011;32448;44.960;-0.698;2022-10-17T13:18:27;10.88;;;4.38;;
46717;SDS011;32448;44.960;-0.698;2022-10-17T13:21:02;10.65;;;3.50;;
46717;SDS011;32448;44.960;-0.698;2022-10-17T13:23:35;14.05;;;4.55;;
46717;SDS011;32448;44.960;-0.698;2022-10-17T13:26:04;11.52;;;3.92;;
46717;SDS011;32448;44.960;-0.698;2022-10-17T13:28:31;12.82;;;4.20;;
46717;SDS011;32448;44.960;-0.698;2022-10-17T13:31:04;8.57;;;4.38;;
46717;SDS011;32448;44.960;-0.698;2022-10-17T13:36:02;11.15;;;3.97;;
46717;SDS011;32448;44.960;-0.698;2022-10-17T13:38:33;15.52;;;4.28;;
46717;SDS011;32448;44.960;-0.698;2022-10-17T13:41:09;12.00;;;4.50;;
46717;SDS011;32448;44.960;-0.698;2022-10-17T13:43:59;12.35;;;3.80;;
46717;SDS011;32448;44.960;-0.698;2022-10-17T13:46:30;12.48;;;4.78;;
46717;SDS011;32448;44.960;-0.698;2022-10-17T13:52:15;13.82;;;4.35;;
46717;SDS011;32448;44.960;-0.698;2022-10-17T13:54:46;11.23;;;3.95;;
46717;SDS011;32448;44.960;-0.698;2022-10-17T13:57:18;12.82;;;4.30;;
46717;SDS011;32448;44.960;-0.698;2022-10-17T13:59:50;12.73;;;4.00;;
46717;SDS011;32448;44.960;-0.698;2022-10-17T14:02:24;13.90;;;4.07;;
46717;SDS011;32448;44.960;-0.698;2022-10-17T14:05:01;13.10;;;4.10;;
46717;SDS011;32448;44.960;-0.698;2022-10-17T14:10:35;10.77;;;3.85;;
46717;SDS011;32448;44.960;-0.698;2022-10-17T14:13:04;11.25;;;3.95;;
46717;SDS011;32448;44.960;-0.698;2022-10-17T14:15:36;12.55;;;3.40;;
46717;SDS011;32448;44.960;-0.698;2022-10-17T14:18:06;9.95;;;3.55;;
46717;SDS011;32448;44.960;-0.698;2022-10-17T14:20:35;14.93;;;4.47;;
46717;SDS011;32448;44.960;-0.698;2022-10-17T14:28:37;11.35;;;3.83;;
46717;SDS011;32448;44.960;-0.698;2022-10-17T14:31:39;10.05;;;3.78;;
46717;SDS011;32448;44.960;-0.698;2022-10-17T14:34:01;10.60;;;3.72;;
46717;SDS011;32448;44.960;-0.698;2022-10-17T14:36:34;15.73;;;3.83;;
46717;SDS011;32448;44.960;-0.698;2022-10-17T14:39:05;13.13;;;3.90;;
46717;SDS011;32448;44.960;-0.698;2022-10-17T14:41:43;14.13;;;4.35;;
46717;SDS011;32448;44.960;-0.698;2022-10-17T14:44:18;13.57;;;4.60;;
46717;SDS011;32448;44.960;-0.698;2022-10-17T14:46:50;12.77;;;4.05;;
46717;SDS011;32448;44.960;-0.698;2022-10-17T14:49:23;12.27;;;3.88;;
46717;SDS011;32448;44.960;-0.698;2022-10-17T14:54:46;16.35;;;4.35;;
46717;SDS011;32448;44.960;-0.698;2022-10-17T14:57:19;11.32;;;3.40;;
46717;SDS011;32448;44.960;-0.698;2022-10-17T14:59:48;15.90;;;3.50;;
46717;SDS011;32448;44.960;-0.698;2022-10-17T15:02:21;11.85;;;3.70;;
46717;SDS011;32448;44.960;-0.698;2022-10-17T15:04:52;11.70;;;3.80;;
46717;SDS011;32448;44.960;-0.698;2022-10-17T15:07:19;9.32;;;3.40;;
46717;SDS011;32448;44.960;-0.698;2022-10-17T15:09:48;11.10;;;3.67;;
46717;SDS011;32448;44.960;-0.698;2022-10-17T15:12:18;17.55;;;3.92;;
46717;SDS011;32448;44.960;-0.698;2022-10-17T15:14:51;7.90;;;2.90;;
46717;SDS011;32448;44.960;-0.698;2022-10-17T15:17:20;12.80;;;3.65;;
46717;SDS011;32448;44.960;-0.698;2022-10-17T15:19:50;13.23;;;3.78;;
46717;SDS011;32448;44.960;-0.698;2022-10-17T15:22:17;11.55;;;3.83;;
46717;SDS011;32448;44.960;-0.698;2022-10-17T15:24:44;16.70;;;3.83;;
46717;SDS011;32448;44.960;-0.698;2022-10-17T15:27:22;11.77;;;4.15;;
46717;SDS011;32448;44.960;-0.698;2022-10-17T15:29:50;11.82;;;3.60;;
46717;SDS011;32448;44.960;-0.698;2022-10-17T15:32:18;16.08;;;4.72;;
46717;SDS011;32448;44.960;-0.698;2022-10-17T15:34:46;15.63;;;3.75;;
46717;SDS011;32448;44.960;-0.698;2022-10-17T15:37:17;11.07;;;3.25;;
46717;SDS011;32448;44.960;-0.698;2022-10-17T15:39:50;9.27;;;3.45;;
46717;SDS011;32448;44.960;-0.698;2022-10-17T15:42:20;13.60;;;4.05;;
46717;SDS011;32448;44.960;-0.698;2022-10-17T15:44:52;7.15;;;2.97;;
46717;SDS011;32448;44.960;-0.698;2022-10-17T15:47:29;8.77;;;3.40;;
46717;SDS011;32448;44.960;-0.698;2022-10-17T15:50:00;11.80;;;3.45;;
46717;SDS011;32448;44.960;-0.698;2022-10-17T15:52:27;9.32;;;3.10;;
46717;SDS011;32448;44.960;-0.698;2022-10-17T15:54:55;11.32;;;3.65;;
46717;SDS011;32448;44.960;-0.698;2022-10-17T15:59:57;16.27;;;4.18;;
46717;SDS011;32448;44.960;-0.698;2022-10-17T16:02:26;10.52;;;3.72;;
46717;SDS011;32448;44.960;-0.698;2022-10-17T16:04:53;10.73;;;3.72;;
46717;SDS011;32448;44.960;-0.698;2022-10-17T16:07:21;9.50;;;3.47;;
46717;SDS011;32448;44.960;-0.698;2022-10-17T16:09:49;12.23;;;3.78;;
46717;SDS011;32448;44.960;-0.698;2022-10-17T16:12:18;10.52;;;3.63;;
46717;SDS011;32448;44.960;-0.698;2022-10-17T16:14:53;7.78;;;3.40;;
46717;SDS011;32448;44.960;-0.698;2022-10-17T16:17:21;6.30;;;3.65;;
46717;SDS011;32448;44.960;-0.698;2022-10-17T16:19:48;12.68;;;3.80;;
46717;SDS011;32448;44.960;-0.698;2022-10-17T16:22:17;6.93;;;3.63;;
46717;SDS011;32448;44.960;-0.698;2022-10-17T16:24:59;11.93;;;3.78;;
46717;SDS011;32448;44.960;-0.698;2022-10-17T16:27:33;11.98;;;3.83;;
46717;SDS011;32448;44.960;-0.698;2022-10-17T16:30:03;12.13;;;4.43;;
46717;SDS011;32448;44.960;-0.698;2022-10-17T16:32:32;12.40;;;4.00;;
46717;SDS011;32448;44.960;-0.698;2022-10-17T16:34:59;12.27;;;3.50;;
46717;SDS011;32448;44.960;-0.698;2022-10-17T16:37:27;8.65;;;3.88;;
46717;SDS011;32448;44.960;-0.698;2022-10-17T16:39:54;6.57;;;3.60;;
46717;SDS011;32448;44.960;-0.698;2022-10-17T16:42:21;10.82;;;3.88;;
46717;SDS011;32448;44.960;-0.698;2022-10-17T16:44:49;8.23;;;3.58;;
46717;SDS011;32448;44.960;-0.698;2022-10-17T16:47:17;8.00;;;4.00;;
46717;SDS011;32448;44.960;-0.698;2022-10-17T16:49:44;11.05;;;4.30;;
46717;SDS011;32448;44.960;-0.698;2022-10-17T16:52:11;11.63;;;4.03;;
46717;SDS011;32448;44.960;-0.698;2022-10-17T16:54:39;7.75;;;4.10;;
46717;SDS011;32448;44.960;-0.698;2022-10-17T16:57:06;9.30;;;4.05;;
46717;SDS011;32448;44.960;-0.698;2022-10-17T16:59:34;10.68;;;4.32;;
46717;SDS011;32448;44.960;-0.698;2022-10-17T17:02:01;7.13;;;3.83;;
46717;SDS011;32448;44.960;-0.698;2022-10-17T17:04:29;7.55;;;3.72;;
46717;SDS011;32448;44.960;-0.698;2022-10-17T17:06:56;7.78;;;3.83;;
46717;SDS011;32448;44.960;-0.698;2022-10-17T17:09:23;14.35;;;4.40;;
46717;SDS011;32448;44.960;-0.698;2022-10-17T17:11:51;11.27;;;4.35;;
46717;SDS011;32448;44.960;-0.698;2022-10-17T17:14:18;9.60;;;4.07;;
46717;SDS011;32448;44.960;-0.698;2022-10-17T17:16:45;11.82;;;4.45;;
46717;SDS011;32448;44.960;-0.698;2022-10-17T17:19:15;15.88;;;5.10;;
46717;SDS011;32448;44.960;-0.698;2022-10-17T17:21:42;12.73;;;4.30;;
46717;SDS011;32448;44.960;-0.698;2022-10-17T17:24:19;15.25;;;4.40;;
46717;SDS011;32448;44.960;-0.698;2022-10-17T17:26:50;11.48;;;4.55;;
46717;SDS011;32448;44.960;-0.698;2022-10-17T17:29:20;8.95;;;4.72;;
46717;SDS011;32448;44.960;-0.698;2022-10-17T17:31:48;11.95;;;4.13;;
46717;SDS011;32448;44.960;-0.698;2022-10-17T17:34:17;15.75;;;4.45;;
46717;SDS011;32448;44.960;-0.698;2022-10-17T17:36:44;10.05;;;4.05;;
46717;SDS011;32448;44.960;-0.698;2022-10-17T17:39:12;10.23;;;4.53;;
46717;SDS011;32448;44.960;-0.698;2022-10-17T17:41:41;14.27;;;4.63;;
46717;SDS011;32448;44.960;-0.698;2022-10-17T17:44:10;9.38;;;4.30;;
46717;SDS011;32448;44.960;-0.698;2022-10-17T17:46:42;6.82;;;4.13;;
46717;SDS011;32448;44.960;-0.698;2022-10-17T17:49:10;11.43;;;4.68;;
46717;SDS011;32448;44.960;-0.698;2022-10-17T17:51:37;9.80;;;4.80;;
46717;SDS011;32448;44.960;-0.698;2022-10-17T17:54:07;11.18;;;4.68;;
46717;SDS011;32448;44.960;-0.698;2022-10-17T17:56:37;10.85;;;4.55;;
46717;SDS011;32448;44.960;-0.698;2022-10-17T17:59:04;7.22;;;4.55;;
46717;SDS011;32448;44.960;-0.698;2022-10-17T18:01:33;10.80;;;5.03;;
46717;SDS011;32448;44.960;-0.698;2022-10-17T18:04:05;11.40;;;5.30;;
46717;SDS011;32448;44.960;-0.698;2022-10-17T18:06:34;15.77;;;4.97;;
46717;SDS011;32448;44.960;-0.698;2022-10-17T18:09:03;16.55;;;5.10;;
46717;SDS011;32448;44.960;-0.698;2022-10-17T18:11:31;11.80;;;4.60;;
46717;SDS011;32448;44.960;-0.698;2022-10-17T18:14:00;9.85;;;4.20;;
46717;SDS011;32448;44.960;-0.698;2022-10-17T18:16:30;9.52;;;4.70;;
46717;SDS011;32448;44.960;-0.698;2022-10-17T18:18:58;15.55;;;5.25;;
46717;SDS011;32448;44.960;-0.698;2022-10-17T18:21:32;12.68;;;5.07;;
46717;SDS011;32448;44.960;-0.698;2022-10-17T18:23:59;9.77;;;4.60;;
46717;SDS011;32448;44.960;-0.698;2022-10-17T18:26:27;16.13;;;4.95;;
46717;SDS011;32448;44.960;-0.698;2022-10-17T18:28:54;8.60;;;5.18;;
46717;SDS011;32448;44.960;-0.698;2022-10-17T18:31:21;18.65;;;4.63;;
46717;SDS011;32448;44.960;-0.698;2022-10-17T18:33:55;12.48;;;5.57;;
46717;SDS011;32448;44.960;-0.698;2022-10-17T18:36:23;11.40;;;5.22;;
46717;SDS011;32448;44.960;-0.698;2022-10-17T18:38:52;13.10;;;5.45;;
46717;SDS011;32448;44.960;-0.698;2022-10-17T18:41:23;17.55;;;5.35;;
46717;SDS011;32448;44.960;-0.698;2022-10-17T18:43:52;15.50;;;5.20;;
46717;SDS011;32448;44.960;-0.698;2022-10-17T18:46:25;17.30;;;5.40;;
46717;SDS011;32448;44.960;-0.698;2022-10-17T18:48:54;10.90;;;5.00;;
46717;SDS011;32448;44.960;-0.698;2022-10-17T18:51:22;9.32;;;4.97;;
46717;SDS011;32448;44.960;-0.698;2022-10-17T18:53:51;11.32;;;5.88;;
46717;SDS011;32448;44.960;-0.698;2022-10-17T18:56:21;11.05;;;5.20;;
46717;SDS011;32448;44.960;-0.698;2022-10-17T18:58:49;10.13;;;4.88;;
46717;SDS011;32448;44.960;-0.698;2022-10-17T19:01:20;13.93;;;4.75;;
46717;SDS011;32448;44.960;-0.698;2022-10-17T19:03:52;13.48;;;5.10;;
46717;SDS011;32448;44.960;-0.698;2022-10-17T19:06:29;9.30;;;5.10;;
46717;SDS011;32448;44.960;-0.698;2022-10-17T19:08:58;16.35;;;5.90;;
46717;SDS011;32448;44.960;-0.698;2022-10-17T19:11:27;9.75;;;5.28;;
46717;SDS011;32448;44.960;-0.698;2022-10-17T19:13:56;11.80;;;5.43;;
46717;SDS011;32448;44.960;-0.698;2022-10-17T19:16:32;14.23;;;5.15;;
46717;SDS011;32448;44.960;-0.698;2022-10-17T19:19:03;12.13;;;5.22;;
46717;SDS011;32448;44.960;-0.698;2022-10-17T19:21:32;11.95;;;5.57;;
46717;SDS011;32448;44.960;-0.698;2022-10-17T19:24:01;13.38;;;5.85;;
46717;SDS011;32448;44.960;-0.698;2022-10-17T19:26:31;11.15;;;5.15;;
46717;SDS011;32448;44.960;-0.698;2022-10-17T19:29:00;15.02;;;5.57;;
46717;SDS011;32448;44.960;-0.698;2022-10-17T19:31:29;11.63;;;5.05;;
46717;SDS011;32448;44.960;-0.698;2022-10-17T19:33:57;7.45;;;5.15;;
46717;SDS011;32448;44.960;-0.698;2022-10-17T19:36:26;12.45;;;6.05;;
46717;SDS011;32448;44.960;-0.698;2022-10-17T19:39:00;10.50;;;5.30;;
46717;SDS011;32448;44.960;-0.698;2022-10-17T19:41:29;13.25;;;5.85;;
46717;SDS011;32448;44.960;-0.698;2022-10-17T19:43:56;9.95;;;4.93;;
46717;SDS011;32448;44.960;-0.698;2022-10-17T19:46:26;12.35;;;6.35;;
46717;SDS011;32448;44.960;-0.698;2022-10-17T19:48:55;12.55;;;5.63;;